sensor_id;sensor_type;location;lat;lon;timestamp;pressure;altitude;pressure_sealevel;temperature;humidity
43153;BME280;28756;49.064;9.290;2022-09-09T00:04:28;98661.16;;;14.57;76.36
43153;BME280;28756;49.064;9.290;2022-09-09T00:07:37;98664.97;;;14.53;76.96
43153;BME280;28756;49.064;9.290;2022-09-09T00:10:37;98658.69;;;14.56;77.71
43153;BME280;28756;49.064;9.290;2022-09-09T00:13:28;98650.94;;;14.43;78.21
43153;BME280;28756;49.064;9.290;2022-09-09T00:16:19;98650.59;;;14.36;77.94
43153;BME280;28756;49.064;9.290;2022-09-09T00:19:05;98641.78;;;14.48;76.76
43153;BME280;28756;49.064;9.290;2022-09-09T00:21:39;98639.53;;;14.44;78.50
43153;BME280;28756;49.064;9.290;2022-09-09T00:24:32;98647.38;;;14.44;77.76
43153;BME280;28756;49.064;9.290;2022-09-09T00:27:57;98649.03;;;14.45;77.55
43153;BME280;28756;49.064;9.290;2022-09-09T00:30:14;98652.22;;;14.48;77.21
43153;BME280;28756;49.064;9.290;2022-09-09T00:32:41;98647.63;;;14.52;77.14
43153;BME280;28756;49.064;9.290;2022-09-09T00:35:36;98651.69;;;14.67;75.95
43153;BME280;28756;49.064;9.290;2022-09-09T00:44:20;98640.34;;;14.90;74.16
43153;BME280;28756;49.064;9.290;2022-09-09T00:55:34;98648.78;;;14.93;74.20
43153;BME280;28756;49.064;9.290;2022-09-09T00:58:08;98651.03;;;14.98;73.03
43153;BME280;28756;49.064;9.290;2022-09-09T01:09:17;98654.22;;;15.13;72.04
43153;BME280;28756;49.064;9.290;2022-09-09T01:17:09;98657.78;;;15.12;72.78
43153;BME280;28756;49.064;9.290;2022-09-09T01:22:39;98651.81;;;15.10;72.73
43153;BME280;28756;49.064;9.290;2022-09-09T01:25:27;98658.88;;;15.09;72.33
43153;BME280;28756;49.064;9.290;2022-09-09T01:27:59;98657.78;;;15.12;72.58
43153;BME280;28756;49.064;9.290;2022-09-09T01:30:26;98649.78;;;15.13;72.61
43153;BME280;28756;49.064;9.290;2022-09-09T01:32:56;98641.22;;;15.11;72.51
43153;BME280;28756;49.064;9.290;2022-09-09T01:38:40;98643.25;;;15.08;72.39
43153;BME280;28756;49.064;9.290;2022-09-09T01:41:06;98645.78;;;15.09;73.02
43153;BME280;28756;49.064;9.290;2022-09-09T01:43:32;98652.41;;;15.13;72.61
43153;BME280;28756;49.064;9.290;2022-09-09T01:46:01;98640.16;;;15.14;72.16
43153;BME280;28756;49.064;9.290;2022-09-09T01:48:28;98654.78;;;15.16;72.32
43153;BME280;28756;49.064;9.290;2022-09-09T01:50:54;98662.53;;;15.18;72.22
43153;BME280;28756;49.064;9.290;2022-09-09T01:53:22;98665.28;;;15.16;72.69
43153;BME280;28756;49.064;9.290;2022-09-09T01:56:05;98659.31;;;15.14;72.43
43153;BME280;28756;49.064;9.290;2022-09-09T01:59:03;98658.38;;;15.15;72.29
43153;BME280;28756;49.064;9.290;2022-09-09T02:04:57;98657.19;;;15.08;73.12
43153;BME280;28756;49.064;9.290;2022-09-09T02:07:42;98661.13;;;15.03;72.88
43153;BME280;28756;49.064;9.290;2022-09-09T02:13:25;98656.75;;;14.92;74.00
43153;BME280;28756;49.064;9.290;2022-09-09T02:19:18;98656.97;;;14.89;74.01
43153;BME280;28756;49.064;9.290;2022-09-09T02:21:49;98647.47;;;14.88;74.36
43153;BME280;28756;49.064;9.290;2022-09-09T02:24:16;98636.41;;;14.84;75.38
43153;BME280;28756;49.064;9.290;2022-09-09T02:26:43;98640.00;;;14.83;76.34
43153;BME280;28756;49.064;9.290;2022-09-09T02:29:22;98641.91;;;14.81;75.83
43153;BME280;28756;49.064;9.290;2022-09-09T02:31:51;98621.19;;;14.78;76.12
43153;BME280;28756;49.064;9.290;2022-09-09T02:34:20;98634.19;;;14.79;77.30
43153;BME280;28756;49.064;9.290;2022-09-09T02:36:49;98655.94;;;14.80;76.58
43153;BME280;28756;49.064;9.290;2022-09-09T02:39:18;98641.06;;;14.80;77.55
43153;BME280;28756;49.064;9.290;2022-09-09T02:41:44;98647.50;;;14.76;77.58
43153;BME280;28756;49.064;9.290;2022-09-09T02:44:12;98664.78;;;14.67;77.93
43153;BME280;28756;49.064;9.290;2022-09-09T02:52:26;98655.81;;;14.36;80.12
43153;BME280;28756;49.064;9.290;2022-09-09T02:55:00;98649.75;;;14.24;81.16
43153;BME280;28756;49.064;9.290;2022-09-09T02:57:31;98641.19;;;14.11;80.93
43153;BME280;28756;49.064;9.290;2022-09-09T02:59:59;98655.66;;;14.03;82.44
43153;BME280;28756;49.064;9.290;2022-09-09T03:02:26;98644.97;;;13.95;81.04
43153;BME280;28756;49.064;9.290;2022-09-09T03:04:51;98638.41;;;13.89;81.11
43153;BME280;28756;49.064;9.290;2022-09-09T03:07:19;98641.16;;;13.88;80.72
43153;BME280;28756;49.064;9.290;2022-09-09T03:09:45;98642.34;;;13.95;80.75
43153;BME280;28756;49.064;9.290;2022-09-09T03:12:11;98632.50;;;13.99;80.08
43153;BME280;28756;49.064;9.290;2022-09-09T03:14:38;98632.25;;;14.13;78.89
43153;BME280;28756;49.064;9.290;2022-09-09T03:17:05;98631.78;;;14.19;78.49
43153;BME280;28756;49.064;9.290;2022-09-09T03:19:31;98628.34;;;14.30;78.04
43153;BME280;28756;49.064;9.290;2022-09-09T03:21:58;98636.09;;;14.32;78.01
43153;BME280;28756;49.064;9.290;2022-09-09T03:24:24;98635.00;;;14.34;77.48
43153;BME280;28756;49.064;9.290;2022-09-09T03:26:50;98637.28;;;14.39;77.38
43153;BME280;28756;49.064;9.290;2022-09-09T03:29:16;98633.09;;;14.36;77.45
43153;BME280;28756;49.064;9.290;2022-09-09T03:31:44;98634.88;;;14.36;77.61
43153;BME280;28756;49.064;9.290;2022-09-09T03:34:10;98632.28;;;14.36;77.95
43153;BME280;28756;49.064;9.290;2022-09-09T03:36:36;98628.25;;;14.32;78.41
43153;BME280;28756;49.064;9.290;2022-09-09T03:39:03;98627.88;;;14.25;79.24
43153;BME280;28756;49.064;9.290;2022-09-09T03:41:30;98636.88;;;14.21;79.52
43153;BME280;28756;49.064;9.290;2022-09-09T03:43:56;98633.81;;;14.16;80.16
43153;BME280;28756;49.064;9.290;2022-09-09T03:46:24;98633.44;;;14.09;79.95
43153;BME280;28756;49.064;9.290;2022-09-09T03:48:50;98627.16;;;14.12;79.90
43153;BME280;28756;49.064;9.290;2022-09-09T03:51:18;98628.81;;;14.13;80.00
43153;BME280;28756;49.064;9.290;2022-09-09T03:53:44;98623.47;;;14.14;80.39
43153;BME280;28756;49.064;9.290;2022-09-09T03:56:10;98636.28;;;14.17;80.39
43153;BME280;28756;49.064;9.290;2022-09-09T03:58:37;98628.22;;;14.20;80.12
43153;BME280;28756;49.064;9.290;2022-09-09T04:01:12;98642.63;;;14.26;80.04
43153;BME280;28756;49.064;9.290;2022-09-09T04:03:43;98640.81;;;14.27;79.82
43153;BME280;28756;49.064;9.290;2022-09-09T04:06:11;98641.31;;;14.32;80.41
43153;BME280;28756;49.064;9.290;2022-09-09T04:08:38;98631.91;;;14.29;79.33
43153;BME280;28756;49.064;9.290;2022-09-09T04:11:05;98643.34;;;14.28;80.03
43153;BME280;28756;49.064;9.290;2022-09-09T04:13:33;98638.22;;;14.27;79.61
43153;BME280;28756;49.064;9.290;2022-09-09T04:16:01;98638.69;;;14.20;79.71
43153;BME280;28756;49.064;9.290;2022-09-09T04:18:28;98640.47;;;14.20;79.86
43153;BME280;28756;49.064;9.290;2022-09-09T04:20:54;98650.34;;;14.16;80.28
43153;BME280;28756;49.064;9.290;2022-09-09T04:23:23;98649.72;;;14.13;79.92
43153;BME280;28756;49.064;9.290;2022-09-09T04:25:55;98651.63;;;14.11;80.27
43153;BME280;28756;49.064;9.290;2022-09-09T04:28:24;98651.72;;;14.09;80.87
43153;BME280;28756;49.064;9.290;2022-09-09T04:30:50;98651.03;;;14.07;81.14
43153;BME280;28756;49.064;9.290;2022-09-09T04:33:16;98651.13;;;14.05;80.59
43153;BME280;28756;49.064;9.290;2022-09-09T04:35:48;98651.59;;;13.99;80.94
43153;BME280;28756;49.064;9.290;2022-09-09T04:38:16;98656.25;;;13.96;80.89
43153;BME280;28756;49.064;9.290;2022-09-09T04:40:49;98653.97;;;13.91;80.99
43153;BME280;28756;49.064;9.290;2022-09-09T04:43:17;98655.75;;;13.90;80.96
43153;BME280;28756;49.064;9.290;2022-09-09T04:45:47;98658.47;;;13.89;81.46
43153;BME280;28756;49.064;9.290;2022-09-09T04:48:14;98658.25;;;13.92;80.50
43153;BME280;28756;49.064;9.290;2022-09-09T04:50:40;98656.72;;;14.01;79.63
43153;BME280;28756;49.064;9.290;2022-09-09T04:53:07;98655.53;;;14.05;79.32
43153;BME280;28756;49.064;9.290;2022-09-09T04:55:34;98671.50;;;14.13;79.82
43153;BME280;28756;49.064;9.290;2022-09-09T04:58:08;98680.66;;;14.19;78.92
43153;BME280;28756;49.064;9.290;2022-09-09T05:00:35;98684.09;;;14.19;79.81
43153;BME280;28756;49.064;9.290;2022-09-09T05:03:05;98675.28;;;14.20;80.29
43153;BME280;28756;49.064;9.290;2022-09-09T05:05:32;98679.72;;;14.20;84.57
43153;BME280;28756;49.064;9.290;2022-09-09T05:08:06;98674.31;;;14.10;83.84
43153;BME280;28756;49.064;9.290;2022-09-09T05:10:33;98677.06;;;14.09;85.09
43153;BME280;28756;49.064;9.290;2022-09-09T05:12:59;98672.66;;;13.98;84.99
43153;BME280;28756;49.064;9.290;2022-09-09T05:15:25;98686.78;;;13.95;85.95
43153;BME280;28756;49.064;9.290;2022-09-09T05:17:50;98685.59;;;13.88;86.55
43153;BME280;28756;49.064;9.290;2022-09-09T05:20:18;98696.84;;;13.88;86.61
43153;BME280;28756;49.064;9.290;2022-09-09T05:22:44;98693.28;;;13.89;87.52
43153;BME280;28756;49.064;9.290;2022-09-09T05:25:10;98695.31;;;13.86;87.78
43153;BME280;28756;49.064;9.290;2022-09-09T05:27:36;98707.66;;;13.84;86.63
43153;BME280;28756;49.064;9.290;2022-09-09T05:30:01;98707.66;;;13.84;87.79
43153;BME280;28756;49.064;9.290;2022-09-09T05:32:29;98709.31;;;13.85;88.73
43153;BME280;28756;49.064;9.290;2022-09-09T05:34:57;98705.97;;;13.83;89.48
43153;BME280;28756;49.064;9.290;2022-09-09T05:37:23;98708.59;;;13.83;89.27
43153;BME280;28756;49.064;9.290;2022-09-09T05:39:49;98708.31;;;13.99;88.59
43153;BME280;28756;49.064;9.290;2022-09-09T05:42:15;98708.38;;;14.44;86.88
43153;BME280;28756;49.064;9.290;2022-09-09T05:44:41;98712.22;;;14.86;83.04
43153;BME280;28756;49.064;9.290;2022-09-09T05:47:10;98701.28;;;15.36;80.17
43153;BME280;28756;49.064;9.290;2022-09-09T05:49:37;98704.97;;;15.77;78.83
43153;BME280;28756;49.064;9.290;2022-09-09T05:52:02;98697.19;;;16.29;76.93
43153;BME280;28756;49.064;9.290;2022-09-09T05:54:29;98703.34;;;15.97;74.92
43153;BME280;28756;49.064;9.290;2022-09-09T05:56:55;98702.19;;;16.42;74.63
43153;BME280;28756;49.064;9.290;2022-09-09T05:59:21;98699.66;;;16.31;73.56
43153;BME280;28756;49.064;9.290;2022-09-09T06:01:49;98696.66;;;15.93;74.24
43153;BME280;28756;49.064;9.290;2022-09-09T06:04:14;98689.34;;;15.75;75.69
43153;BME280;28756;49.064;9.290;2022-09-09T06:06:40;98696.41;;;15.63;76.17
43153;BME280;28756;49.064;9.290;2022-09-09T06:09:09;98693.94;;;15.62;78.17
43153;BME280;28756;49.064;9.290;2022-09-09T06:11:38;98686.72;;;15.54;77.45
43153;BME280;28756;49.064;9.290;2022-09-09T06:14:04;98693.25;;;15.81;77.93
43153;BME280;28756;49.064;9.290;2022-09-09T06:16:31;98693.91;;;15.94;75.54
43153;BME280;28756;49.064;9.290;2022-09-09T06:19:01;98695.59;;;15.63;75.70
43153;BME280;28756;49.064;9.290;2022-09-09T06:21:34;98694.28;;;15.69;76.86
43153;BME280;28756;49.064;9.290;2022-09-09T06:24:03;98698.16;;;15.53;76.13
43153;BME280;28756;49.064;9.290;2022-09-09T06:26:32;98700.66;;;15.43;77.18
43153;BME280;28756;49.064;9.290;2022-09-09T06:29:00;98699.59;;;15.46;76.72
43153;BME280;28756;49.064;9.290;2022-09-09T06:31:28;98705.06;;;15.54;77.60
43153;BME280;28756;49.064;9.290;2022-09-09T06:34:00;98703.00;;;15.58;76.21
43153;BME280;28756;49.064;9.290;2022-09-09T06:36:32;98701.94;;;15.60;76.33
43153;BME280;28756;49.064;9.290;2022-09-09T06:38:59;98713.50;;;15.58;76.83
43153;BME280;28756;49.064;9.290;2022-09-09T06:41:28;98706.72;;;15.76;77.78
43153;BME280;28756;49.064;9.290;2022-09-09T06:43:55;98701.97;;;16.24;76.24
43153;BME280;28756;49.064;9.290;2022-09-09T06:46:27;98701.53;;;16.40;72.61
43153;BME280;28756;49.064;9.290;2022-09-09T06:48:53;98695.56;;;16.38;72.99
43153;BME280;28756;49.064;9.290;2022-09-09T06:51:22;98698.25;;;16.26;73.26
43153;BME280;28756;49.064;9.290;2022-09-09T06:53:56;98695.06;;;16.23;71.43
43153;BME280;28756;49.064;9.290;2022-09-09T06:58:52;98706.06;;;16.17;73.02
43153;BME280;28756;49.064;9.290;2022-09-09T07:01:23;98707.53;;;16.31;74.41
43153;BME280;28756;49.064;9.290;2022-09-09T07:03:52;98709.06;;;16.33;73.51
43153;BME280;28756;49.064;9.290;2022-09-09T07:06:25;98718.28;;;16.27;74.37
43153;BME280;28756;49.064;9.290;2022-09-09T07:08:52;98718.47;;;16.36;73.60
43153;BME280;28756;49.064;9.290;2022-09-09T07:11:20;98710.13;;;16.52;71.66
43153;BME280;28756;49.064;9.290;2022-09-09T07:13:47;98715.56;;;16.60;71.92
43153;BME280;28756;49.064;9.290;2022-09-09T07:16:17;98715.09;;;16.55;72.19
43153;BME280;28756;49.064;9.290;2022-09-09T07:18:43;98709.69;;;16.78;72.24
43153;BME280;28756;49.064;9.290;2022-09-09T07:21:12;98704.09;;;16.92;70.78
43153;BME280;28756;49.064;9.290;2022-09-09T07:23:38;98699.16;;;17.09;70.55
43153;BME280;28756;49.064;9.290;2022-09-09T07:26:14;98705.66;;;17.14;69.20
43153;BME280;28756;49.064;9.290;2022-09-09T07:28:41;98713.19;;;17.39;70.62
43153;BME280;28756;49.064;9.290;2022-09-09T07:31:14;98712.78;;;17.43;68.93
43153;BME280;28756;49.064;9.290;2022-09-09T07:33:40;98716.88;;;17.07;69.85
43153;BME280;28756;49.064;9.290;2022-09-09T07:36:20;98714.56;;;17.33;69.43
43153;BME280;28756;49.064;9.290;2022-09-09T07:39:03;98721.22;;;17.57;68.79
43153;BME280;28756;49.064;9.290;2022-09-09T07:41:39;98709.72;;;17.77;67.16
43153;BME280;28756;49.064;9.290;2022-09-09T07:44:18;98710.16;;;18.02;66.24
43153;BME280;28756;49.064;9.290;2022-09-09T07:46:45;98707.09;;;18.17;65.49
43153;BME280;28756;49.064;9.290;2022-09-09T07:49:11;98703.75;;;18.24;65.92
43153;BME280;28756;49.064;9.290;2022-09-09T07:51:41;98696.63;;;18.44;65.43
43153;BME280;28756;49.064;9.290;2022-09-09T07:54:11;98705.28;;;18.65;64.00
43153;BME280;28756;49.064;9.290;2022-09-09T07:56:39;98697.94;;;18.68;64.92
43153;BME280;28756;49.064;9.290;2022-09-09T07:59:04;98701.97;;;18.62;65.62
43153;BME280;28756;49.064;9.290;2022-09-09T08:01:47;98699.81;;;18.86;64.26
43153;BME280;28756;49.064;9.290;2022-09-09T08:04:17;98706.31;;;18.54;63.52
43153;BME280;28756;49.064;9.290;2022-09-09T08:06:49;98718.59;;;18.25;65.68
43153;BME280;28756;49.064;9.290;2022-09-09T08:09:16;98726.06;;;18.20;66.11
43153;BME280;28756;49.064;9.290;2022-09-09T08:11:43;98719.59;;;18.52;67.54
43153;BME280;28756;49.064;9.290;2022-09-09T08:14:10;98722.34;;;18.23;66.13
43153;BME280;28756;49.064;9.290;2022-09-09T08:16:41;98710.16;;;17.92;65.70
43153;BME280;28756;49.064;9.290;2022-09-09T08:19:07;98712.94;;;18.01;65.00
43153;BME280;28756;49.064;9.290;2022-09-09T08:21:35;98710.66;;;18.35;65.04
43153;BME280;28756;49.064;9.290;2022-09-09T08:24:02;98720.13;;;18.66;63.96
43153;BME280;28756;49.064;9.290;2022-09-09T08:26:32;98716.59;;;18.75;63.34
43153;BME280;28756;49.064;9.290;2022-09-09T08:29:01;98701.88;;;18.92;63.13
43153;BME280;28756;49.064;9.290;2022-09-09T08:31:33;98703.41;;;18.85;63.97
43153;BME280;28756;49.064;9.290;2022-09-09T08:34:00;98697.59;;;19.37;62.32
43153;BME280;28756;49.064;9.290;2022-09-09T08:36:31;98694.41;;;19.87;59.67
43153;BME280;28756;49.064;9.290;2022-09-09T08:38:59;98682.69;;;20.34;58.14
43153;BME280;28756;49.064;9.290;2022-09-09T08:44:32;98705.59;;;20.08;58.00
43153;BME280;28756;49.064;9.290;2022-09-09T08:47:38;98706.91;;;19.49;60.25
43153;BME280;28756;49.064;9.290;2022-09-09T08:50:27;98714.06;;;18.93;61.24
43153;BME280;28756;49.064;9.290;2022-09-09T08:53:09;98707.09;;;19.02;62.43
43153;BME280;28756;49.064;9.290;2022-09-09T08:56:03;98696.28;;;19.41;60.12
43153;BME280;28756;49.064;9.290;2022-09-09T08:58:45;98688.44;;;19.85;58.08
43153;BME280;28756;49.064;9.290;2022-09-09T09:01:48;98676.97;;;20.21;55.40
43153;BME280;28756;49.064;9.290;2022-09-09T09:07:35;98666.53;;;21.40;52.18
43153;BME280;28756;49.064;9.290;2022-09-09T09:10:33;98672.81;;;21.39;51.45
43153;BME280;28756;49.064;9.290;2022-09-09T09:13:01;98683.47;;;20.27;53.91
43153;BME280;28756;49.064;9.290;2022-09-09T09:15:37;98685.34;;;19.90;55.45
43153;BME280;28756;49.064;9.290;2022-09-09T09:18:04;98677.25;;;21.22;52.70
43153;BME280;28756;49.064;9.290;2022-09-09T09:21:00;98675.03;;;21.76;51.79
43153;BME280;28756;49.064;9.290;2022-09-09T09:23:43;98670.50;;;22.10;50.31
43153;BME280;28756;49.064;9.290;2022-09-09T09:26:11;98671.06;;;21.81;50.18
43153;BME280;28756;49.064;9.290;2022-09-09T09:28:42;98662.94;;;21.90;49.29
43153;BME280;28756;49.064;9.290;2022-09-09T09:31:12;98667.88;;;20.76;50.19
43153;BME280;28756;49.064;9.290;2022-09-09T09:33:53;98663.19;;;20.62;52.15
43153;BME280;28756;49.064;9.290;2022-09-09T09:36:41;98659.25;;;21.17;50.78
43153;BME280;28756;49.064;9.290;2022-09-09T09:39:08;98643.97;;;22.35;48.82
43153;BME280;28756;49.064;9.290;2022-09-09T09:41:40;98640.94;;;22.63;47.37
43153;BME280;28756;49.064;9.290;2022-09-09T09:46:48;98642.97;;;22.52;44.84
43153;BME280;28756;49.064;9.290;2022-09-09T09:49:14;98641.50;;;22.81;44.35
43153;BME280;28756;49.064;9.290;2022-09-09T09:51:40;98627.81;;;23.71;44.15
43153;BME280;28756;49.064;9.290;2022-09-09T09:54:31;98626.72;;;24.18;43.13
43153;BME280;28756;49.064;9.290;2022-09-09T09:57:10;98647.38;;;23.31;41.66
43153;BME280;28756;49.064;9.290;2022-09-09T09:59:37;98660.16;;;23.51;42.71
43153;BME280;28756;49.064;9.290;2022-09-09T10:02:23;98675.66;;;22.12;49.52
43153;BME280;28756;49.064;9.290;2022-09-09T10:05:24;98705.84;;;20.14;55.77
43153;BME280;28756;49.064;9.290;2022-09-09T10:08:20;98705.66;;;18.32;62.68
43153;BME280;28756;49.064;9.290;2022-09-09T10:11:30;98696.53;;;18.74;63.21
43153;BME280;28756;49.064;9.290;2022-09-09T10:14:20;98685.91;;;19.21;61.78
43153;BME280;28756;49.064;9.290;2022-09-09T10:20:12;98702.19;;;19.07;61.57
43153;BME280;28756;49.064;9.290;2022-09-09T10:22:33;98703.31;;;18.67;63.09
43153;BME280;28756;49.064;9.290;2022-09-09T10:25:26;98711.38;;;17.88;70.05
43153;BME280;28756;49.064;9.290;2022-09-09T10:28:52;98723.56;;;17.30;78.71
43153;BME280;28756;49.064;9.290;2022-09-09T10:35:04;98718.16;;;15.75;88.39
43153;BME280;28756;49.064;9.290;2022-09-09T10:44:15;98714.81;;;15.85;92.09
43153;BME280;28756;49.064;9.290;2022-09-09T10:52:42;98717.31;;;16.50;89.92
43153;BME280;28756;49.064;9.290;2022-09-09T10:55:18;98693.47;;;18.41;89.57
43153;BME280;28756;49.064;9.290;2022-09-09T10:57:50;98688.00;;;19.90;82.26
43153;BME280;28756;49.064;9.290;2022-09-09T11:00:36;98687.19;;;21.28;76.13
43153;BME280;28756;49.064;9.290;2022-09-09T11:03:04;98679.31;;;22.11;71.38
43153;BME280;28756;49.064;9.290;2022-09-09T11:06:04;98683.81;;;20.93;71.22
43153;BME280;28756;49.064;9.290;2022-09-09T11:08:34;98687.75;;;20.28;71.90
43153;BME280;28756;49.064;9.290;2022-09-09T11:11:20;98686.50;;;19.87;76.03
43153;BME280;28756;49.064;9.290;2022-09-09T11:16:40;98694.09;;;19.18;76.50
43153;BME280;28756;49.064;9.290;2022-09-09T11:21:58;98687.44;;;18.86;81.94
43153;BME280;28756;49.064;9.290;2022-09-09T11:24:42;98693.97;;;18.92;83.59
43153;BME280;28756;49.064;9.290;2022-09-09T11:27:26;98682.84;;;18.23;73.34
43153;BME280;28756;49.064;9.290;2022-09-09T11:30:14;98689.31;;;18.28;75.97
43153;BME280;28756;49.064;9.290;2022-09-09T11:38:45;98706.97;;;17.59;83.31
43153;BME280;28756;49.064;9.290;2022-09-09T11:41:11;98708.19;;;17.35;78.08
43153;BME280;28756;49.064;9.290;2022-09-09T11:43:49;98710.69;;;17.37;81.24
43153;BME280;28756;49.064;9.290;2022-09-09T11:46:22;98716.72;;;17.08;75.75
43153;BME280;28756;49.064;9.290;2022-09-09T11:49:05;98714.34;;;16.95;71.51
43153;BME280;28756;49.064;9.290;2022-09-09T11:51:33;98720.69;;;16.93;75.88
43153;BME280;28756;49.064;9.290;2022-09-09T11:54:03;98722.88;;;16.87;71.62
43153;BME280;28756;49.064;9.290;2022-09-09T11:56:47;98715.81;;;16.88;74.01
43153;BME280;28756;49.064;9.290;2022-09-09T11:59:28;98717.22;;;16.92;74.86
43153;BME280;28756;49.064;9.290;2022-09-09T12:02:12;98719.59;;;16.95;70.03
43153;BME280;28756;49.064;9.290;2022-09-09T12:05:05;98716.97;;;17.05;72.48
43153;BME280;28756;49.064;9.290;2022-09-09T12:10:30;98710.00;;;17.45;70.61
43153;BME280;28756;49.064;9.290;2022-09-09T12:13:20;98711.94;;;17.43;69.90
43153;BME280;28756;49.064;9.290;2022-09-09T12:15:51;98705.19;;;17.70;71.54
43153;BME280;28756;49.064;9.290;2022-09-09T12:18:39;98699.78;;;17.71;71.53
43153;BME280;28756;49.064;9.290;2022-09-09T12:21:36;98693.81;;;17.69;72.39
43153;BME280;28756;49.064;9.290;2022-09-09T12:24:17;98687.31;;;17.83;72.06
43153;BME280;28756;49.064;9.290;2022-09-09T12:28:24;98676.28;;;18.46;75.02
43153;BME280;28756;49.064;9.290;2022-09-09T12:30:19;98674.66;;;18.63;69.34
43153;BME280;28756;49.064;9.290;2022-09-09T12:32:47;98668.03;;;18.22;66.24
43153;BME280;28756;49.064;9.290;2022-09-09T12:35:22;98667.66;;;18.07;65.16
43153;BME280;28756;49.064;9.290;2022-09-09T12:37:54;98663.66;;;18.40;64.24
43153;BME280;28756;49.064;9.290;2022-09-09T12:40:24;98659.81;;;19.00;62.50
43153;BME280;28756;49.064;9.290;2022-09-09T12:42:50;98667.66;;;19.10;61.46
43153;BME280;28756;49.064;9.290;2022-09-09T12:45:23;98668.56;;;19.19;60.60
43153;BME280;28756;49.064;9.290;2022-09-09T12:48:01;98659.44;;;19.49;65.49
43153;BME280;28756;49.064;9.290;2022-09-09T12:50:45;98656.78;;;19.67;61.03
43153;BME280;28756;49.064;9.290;2022-09-09T12:58:32;98648.75;;;20.82;63.88
43153;BME280;28756;49.064;9.290;2022-09-09T13:01:02;98640.94;;;21.32;58.78
43153;BME280;28756;49.064;9.290;2022-09-09T13:03:31;98640.38;;;20.95;53.09
43153;BME280;28756;49.064;9.290;2022-09-09T13:06:10;98636.31;;;21.26;52.57
43153;BME280;28756;49.064;9.290;2022-09-09T13:08:37;98639.75;;;21.26;50.21
43153;BME280;28756;49.064;9.290;2022-09-09T13:11:10;98642.16;;;20.78;48.65
43153;BME280;28756;49.064;9.290;2022-09-09T13:13:42;98649.34;;;20.33;52.98
43153;BME280;28756;49.064;9.290;2022-09-09T13:16:26;98641.47;;;20.42;52.61
43153;BME280;28756;49.064;9.290;2022-09-09T13:18:56;98634.63;;;20.23;53.74
43153;BME280;28756;49.064;9.290;2022-09-09T13:21:37;98646.63;;;19.72;55.18
43153;BME280;28756;49.064;9.290;2022-09-09T13:24:06;98642.41;;;19.44;53.93
43153;BME280;28756;49.064;9.290;2022-09-09T13:26:34;98640.78;;;19.61;56.78
43153;BME280;28756;49.064;9.290;2022-09-09T13:29:19;98642.41;;;19.44;56.54
43153;BME280;28756;49.064;9.290;2022-09-09T13:31:45;98644.22;;;19.61;56.96
43153;BME280;28756;49.064;9.290;2022-09-09T13:34:30;98639.88;;;19.78;57.14
43153;BME280;28756;49.064;9.290;2022-09-09T13:37:03;98640.66;;;19.88;53.50
43153;BME280;28756;49.064;9.290;2022-09-09T13:39:34;98633.03;;;20.73;52.97
43153;BME280;28756;49.064;9.290;2022-09-09T13:42:02;98624.72;;;21.35;53.91
43153;BME280;28756;49.064;9.290;2022-09-09T13:44:37;98626.72;;;21.83;51.40
43153;BME280;28756;49.064;9.290;2022-09-09T13:47:32;98612.69;;;21.74;53.12
43153;BME280;28756;49.064;9.290;2022-09-09T13:49:58;98606.88;;;21.54;52.28
43153;BME280;28756;49.064;9.290;2022-09-09T13:52:34;98599.88;;;22.02;53.09
43153;BME280;28756;49.064;9.290;2022-09-09T13:55:01;98598.59;;;21.90;48.15
43153;BME280;28756;49.064;9.290;2022-09-09T13:57:26;98592.66;;;22.44;50.12
43153;BME280;28756;49.064;9.290;2022-09-09T13:59:54;98594.16;;;21.66;47.44
43153;BME280;28756;49.064;9.290;2022-09-09T14:02:22;98599.44;;;21.33;46.93
43153;BME280;28756;49.064;9.290;2022-09-09T14:04:49;98598.75;;;20.97;47.94
43153;BME280;28756;49.064;9.290;2022-09-09T14:07:20;98585.25;;;21.67;49.54
43153;BME280;28756;49.064;9.290;2022-09-09T14:09:46;98588.03;;;21.57;48.45
43153;BME280;28756;49.064;9.290;2022-09-09T14:12:16;98595.00;;;21.50;48.58
43153;BME280;28756;49.064;9.290;2022-09-09T14:14:42;98591.13;;;20.86;51.90
43153;BME280;28756;49.064;9.290;2022-09-09T14:17:08;98597.41;;;20.42;52.08
43153;BME280;28756;49.064;9.290;2022-09-09T14:19:35;98601.75;;;20.17;53.18
43153;BME280;28756;49.064;9.290;2022-09-09T14:22:02;98611.22;;;20.01;53.48
43153;BME280;28756;49.064;9.290;2022-09-09T14:24:28;98610.41;;;19.83;53.66
43153;BME280;28756;49.064;9.290;2022-09-09T14:26:54;98622.22;;;19.70;54.38
43153;BME280;28756;49.064;9.290;2022-09-09T14:29:20;98619.75;;;19.69;56.92
43153;BME280;28756;49.064;9.290;2022-09-09T14:31:46;98619.00;;;19.59;56.11
43153;BME280;28756;49.064;9.290;2022-09-09T14:34:12;98612.38;;;19.99;55.57
43153;BME280;28756;49.064;9.290;2022-09-09T14:36:40;98600.63;;;20.28;54.68
43153;BME280;28756;49.064;9.290;2022-09-09T14:39:07;98601.69;;;20.09;54.41
43153;BME280;28756;49.064;9.290;2022-09-09T14:41:33;98605.44;;;19.98;55.67
43153;BME280;28756;49.064;9.290;2022-09-09T14:43:59;98603.28;;;19.75;55.46
43153;BME280;28756;49.064;9.290;2022-09-09T14:46:25;98606.38;;;19.70;57.06
43153;BME280;28756;49.064;9.290;2022-09-09T14:48:52;98616.44;;;19.49;57.68
43153;BME280;28756;49.064;9.290;2022-09-09T14:51:22;98610.09;;;19.41;57.55
43153;BME280;28756;49.064;9.290;2022-09-09T14:53:51;98612.59;;;19.43;58.04
43153;BME280;28756;49.064;9.290;2022-09-09T14:56:21;98611.75;;;19.42;57.19
43153;BME280;28756;49.064;9.290;2022-09-09T14:58:48;98615.38;;;19.41;56.95
43153;BME280;28756;49.064;9.290;2022-09-09T15:01:17;98618.56;;;19.45;58.33
43153;BME280;28756;49.064;9.290;2022-09-09T15:04:10;98614.72;;;19.39;56.56
43153;BME280;28756;49.064;9.290;2022-09-09T15:06:37;98629.94;;;19.28;56.66
43153;BME280;28756;49.064;9.290;2022-09-09T15:09:04;98623.53;;;19.12;58.71
43153;BME280;28756;49.064;9.290;2022-09-09T15:11:35;98627.13;;;18.93;62.49
43153;BME280;28756;49.064;9.290;2022-09-09T15:14:06;98625.59;;;18.62;63.36